Ashwood, Texas
Current Conditions -  °F | °C
As of 6:15 AM on Sunday 25 Jan 2015 (Local Time) from KBYY Reporting Station
Clear Clear  
Wind Chill:   Ceiling: Unl
Heat Index:   Visibility: 10mi
Dew Point:   Wind: 3mph
Humidity: 98%   Direction: 220°SW
Pressure: 30.05"   Gusts: NA
Location:  29.0235°N, 95.7113°W
Report Text: KBYY 251215Z AUTO 22003KT 10SM CLR 06/06 A3005 RMK AO2 T00560053
Loading
Personal Weather Stations






























Interactive Weather Map New forecast layout! Learn more

10-Day Weather Forecast

Advertisements
Track Severe Weather on mobile